Time;durP1;ratioP1;P1;durP2;ratioP2;P2;SDS_P1;SDS_P2;PMS_P1;PMS_P2;Temp;Humidity;BMP_temperature;BMP_pressure;BME280_temperature;BME280_humidity;BME280_pressure;Samples;Min_cycle;Max_cycle;Signal;HPM_P1;HPM_P2
2024/02/16 00:00:36;;;;;;;;;;;;;;;10.40;98.23;100601.06;5094011;28;19974;-78
2024/02/16 00:03:02;;;;;;;;;;;;;;;10.42;98.48;100602.50;5091452;28;19959;-78
2024/02/16 00:05:27;;;;;;;;;;;;;;;10.45;98.91;100602.09;5094764;28;19927;-78
2024/02/16 00:07:52;;;;;;;;;;;;;;;10.40;99.12;100609.13;5093225;28;19927;-78
2024/02/16 00:10:19;;;;;;;;;;;;;;;10.37;99.32;100596.88;5091857;28;19920;-78
2024/02/16 00:12:44;;;;;;;;;;;;;;;10.36;99.71;100602.44;5087266;28;20264;-78
2024/02/16 00:15:10;;;;;;;;;;;;;;;10.37;99.24;100607.66;5096534;28;19968;-78
2024/02/16 00:17:37;;;;;;;;;;;;;;;10.46;98.65;100606.44;5092014;28;20380;-78
2024/02/16 00:20:02;;;;;;;;;;;;;;;10.46;98.91;100608.31;5093819;28;20359;-78
2024/02/16 00:22:28;;;;;;;;;;;;;;;10.44;98.77;100607.69;5095439;28;20026;-78
2024/02/16 00:24:53;;;;;;;;;;;;;;;10.49;98.33;100605.25;5091384;28;20379;-78
2024/02/16 00:27:18;;;;;;;;;;;;;;;10.51;98.42;100600.44;5094553;28;20494;-78
2024/02/16 00:29:43;;;;;;;;;;;;;;;10.49;98.27;100604.38;5093265;28;20790;-78
2024/02/16 00:32:09;;;;;;;;;;;;;;;10.45;98.46;100595.91;5092787;28;19924;-77
2024/02/16 00:34:34;;;;;;;;;;;;;;;10.49;97.91;100604.38;5093596;28;19920;-77
2024/02/16 00:37:00;;;;;;;;;;;;;;;10.49;98.53;100599.00;5093067;28;19924;-77
2024/02/16 00:39:25;;;;;;;;;;;;;;;10.45;98.69;100603.97;5092808;28;19957;-75
2024/02/16 00:41:50;;;;;;;;;;;;;;;10.44;98.69;100596.94;5092516;28;20367;-74
2024/02/16 00:44:15;;;;;;;;;;;;;;;10.39;98.90;100591.31;5093447;28;20391;-75
2024/02/16 00:46:41;;;;;;;;;;;;;;;10.36;98.96;100589.00;5086467;28;19943;-75
2024/02/16 00:49:07;;;;;;;;;;;;;;;10.39;98.75;100586.78;5093611;28;19920;-75
2024/02/16 00:51:32;;;;;;;;;;;;;;;10.35;98.33;100588.19;5092312;28;19920;-75
2024/02/16 00:53:57;;;;;;;;;;;;;;;10.30;99.11;100587.94;5093097;28;20403;-75
2024/02/16 00:56:25;;;;;;;;;;;;;;;10.27;99.24;100581.13;5092449;28;20510;-75
2024/02/16 00:58:51;;;;;;;;;;;;;;;10.28;99.75;100577.41;5092123;28;19978;-75
2024/02/16 01:01:16;;;;;;;;;;;;;;;10.24;99.60;100569.91;5091598;28;19920;-75
2024/02/16 01:03:42;;;;;;;;;;;;;;;10.20;99.66;100571.38;5093301;28;19920;-75
2024/02/16 01:06:10;;;;;;;;;;;;;;;10.18;99.97;100573.44;5095866;28;20012;-75
2024/02/16 01:08:35;;;;;;;;;;;;;;;10.23;100.00;100570.97;5092568;28;20583;-75
2024/02/16 01:11:00;;;;;;;;;;;;;;;10.21;99.93;100567.66;5092940;28;20018;-75
2024/02/16 01:13:25;;;;;;;;;;;;;;;10.18;99.80;100568.88;5090206;28;19953;-75
2024/02/16 01:15:51;;;;;;;;;;;;;;;10.21;99.83;100565.78;5092289;28;19924;-75
2024/02/16 01:18:17;;;;;;;;;;;;;;;10.14;99.79;100560.38;5100566;28;19927;-75
2024/02/16 01:20:42;;;;;;;;;;;;;;;10.06;100.00;100552.47;5098821;28;20017;-75
2024/02/16 01:23:07;;;;;;;;;;;;;;;10.05;100.00;100561.59;5111219;28;19924;-74
2024/02/16 01:25:32;;;;;;;;;;;;;;;9.94;100.00;100554.94;5118203;28;19923;-75
2024/02/16 01:27:58;;;;;;;;;;;;;;;9.99;100.00;100552.44;5109421;28;19916;-75
2024/02/16 01:30:23;;;;;;;;;;;;;;;10.02;100.00;100548.53;5097285;28;19928;-74
2024/02/16 01:32:48;;;;;;;;;;;;;;;10.01;100.00;100552.25;5108650;28;19980;-75
2024/02/16 01:35:17;;;;;;;;;;;;;;;10.00;100.00;100558.66;5097566;28;20007;-74
2024/02/16 01:37:42;;;;;;;;;;;;;;;10.02;100.00;100551.22;5097931;28;19989;-75
2024/02/16 01:40:17;;;;;;;;;;;;;;;9.99;100.00;100557.00;5105402;28;19955;-74
2024/02/16 01:43:03;;;;;;;;;;;;;;;9.92;100.00;100554.28;5100048;28;20113;-75
2024/02/16 01:45:28;;;;;;;;;;;;;;;9.98;100.00;100544.59;5101588;28;19954;-75
2024/02/16 01:47:53;;;;;;;;;;;;;;;9.96;100.00;100539.44;5098470;28;20366;-75
2024/02/16 01:50:18;;;;;;;;;;;;;;;9.97;100.00;100541.06;5080902;28;20012;-75
2024/02/16 01:52:44;;;;;;;;;;;;;;;9.98;100.00;100540.03;5111985;28;19926;-75
2024/02/16 01:55:10;;;;;;;;;;;;;;;10.01;99.81;100546.88;5098751;28;19926;-75
2024/02/16 01:57:35;;;;;;;;;;;;;;;10.03;99.40;100542.13;5104002;28;19931;-75
2024/02/16 02:00:05;;;;;;;;;;;;;;;10.02;99.28;100545.84;5084575;28;19997;-75
2024/02/16 02:02:30;;;;;;;;;;;;;;;9.93;99.88;100541.66;5102507;28;19927;-75
2024/02/16 02:04:55;;;;;;;;;;;;;;;9.92;99.72;100542.69;5096655;28;20332;-75
2024/02/16 02:07:24;;;;;;;;;;;;;;;9.97;98.73;100538.38;5108143;28;20263;-75
2024/02/16 02:09:50;;;;;;;;;;;;;;;9.97;99.21;100526.78;5105401;28;19924;-75
2024/02/16 02:12:15;;;;;;;;;;;;;;;10.06;97.92;100530.94;5104014;28;19926;-75
2024/02/16 02:14:41;;;;;;;;;;;;;;;10.08;98.11;100534.28;5104878;28;19927;-75
2024/02/16 02:17:07;;;;;;;;;;;;;;;10.13;97.34;100529.13;5103563;28;20515;-75
2024/02/16 02:19:32;;;;;;;;;;;;;;;10.15;97.18;100529.75;5098520;28;19967;-75
2024/02/16 02:21:57;;;;;;;;;;;;;;;10.10;97.60;100529.53;5099334;28;20371;-75
2024/02/16 02:24:23;;;;;;;;;;;;;;;10.13;97.13;100531.00;5103897;28;20382;-75
2024/02/16 02:26:48;;;;;;;;;;;;;;;10.15;97.23;100526.22;5107400;28;20394;-75
2024/02/16 02:29:13;;;;;;;;;;;;;;;10.14;97.00;100522.72;5108061;28;19975;-75
2024/02/16 02:31:39;;;;;;;;;;;;;;;10.18;97.06;100522.31;5108812;28;20358;-75
2024/02/16 02:34:05;;;;;;;;;;;;;;;10.14;97.15;100517.34;5108488;28;19928;-75
2024/02/16 02:36:30;;;;;;;;;;;;;;;10.21;96.32;100519.22;5104493;28;19931;-75
2024/02/16 02:38:55;;;;;;;;;;;;;;;10.20;96.07;100520.25;5102145;28;19928;-75
2024/02/16 02:41:21;;;;;;;;;;;;;;;10.18;96.17;100511.56;5102706;28;19963;-74
2024/02/16 02:43:49;;;;;;;;;;;;;;;10.19;96.05;100511.34;5100504;28;20043;-75
2024/02/16 02:46:14;;;;;;;;;;;;;;;10.23;95.39;100498.34;5099362;28;19954;-75
2024/02/16 02:48:40;;;;;;;;;;;;;;;10.22;95.37;100499.38;5093297;28;19924;-75
2024/02/16 02:51:05;;;;;;;;;;;;;;;10.12;96.15;100495.19;5097874;28;19927;-75
2024/02/16 02:53:30;;;;;;;;;;;;;;;10.19;96.02;100497.06;5106816;28;19919;-75
2024/02/16 02:55:55;;;;;;;;;;;;;;;10.11;96.26;100485.47;5099973;28;20352;-75
2024/02/16 02:58:21;;;;;;;;;;;;;;;10.13;96.39;100488.78;5097964;28;19920;-75
2024/02/16 03:00:46;;;;;;;;;;;;;;;10.07;96.59;100480.69;5102187;28;19959;-75
2024/02/16 03:03:11;;;;;;;;;;;;;;;10.13;96.09;100483.41;5096405;28;19927;-75
2024/02/16 03:05:40;;;;;;;;;;;;;;;10.13;96.21;100478.03;5101796;28;20039;-75
2024/02/16 03:08:06;;;;;;;;;;;;;;;10.07;96.68;100476.13;5108398;28;19920;-75
2024/02/16 03:10:34;;;;;;;;;;;;;;;10.03;97.20;100480.28;5106505;28;20014;-75
2024/02/16 03:13:00;;;;;;;;;;;;;;;10.01;96.74;100483.16;5091509;28;20439;-75
2024/02/16 03:15:25;;;;;;;;;;;;;;;9.99;96.74;100487.09;5095590;28;19920;-75
2024/02/16 03:17:50;;;;;;;;;;;;;;;9.95;96.90;100467.00;5097922;28;19920;-76
2024/02/16 03:20:16;;;;;;;;;;;;;;;9.95;97.26;100473.22;5092272;28;19928;-79
2024/02/16 03:22:44;;;;;;;;;;;;;;;9.94;97.37;100481.47;5091333;28;19993;-78
2024/02/16 03:25:09;;;;;;;;;;;;;;;9.95;96.97;100491.19;5092294;28;20287;-78
2024/02/16 03:27:35;;;;;;;;;;;;;;;9.92;97.00;100479.00;5089382;28;19927;-78
2024/02/16 03:30:00;;;;;;;;;;;;;;;9.97;97.10;100476.50;5091070;28;19920;-78
2024/02/16 03:32:26;;;;;;;;;;;;;;;9.99;96.57;100471.75;5110820;28;19920;-78
2024/02/16 03:34:51;;;;;;;;;;;;;;;9.98;96.93;100469.28;5096980;28;20446;-78
2024/02/16 03:37:16;;;;;;;;;;;;;;;10.03;96.19;100466.84;5101368;28;20305;-78
2024/02/16 03:39:41;;;;;;;;;;;;;;;10.08;96.70;100458.97;5093095;28;19998;-78
2024/02/16 03:42:07;;;;;;;;;;;;;;;10.15;95.71;100454.44;5096291;28;19924;-78
2024/02/16 03:44:32;;;;;;;;;;;;;;;10.18;95.92;100460.44;5096875;28;20030;-78
2024/02/16 03:46:57;;;;;;;;;;;;;;;10.22;95.77;100464.41;5096731;28;20042;-78
2024/02/16 03:49:22;;;;;;;;;;;;;;;10.23;95.52;100466.88;5092727;28;20370;-79
2024/02/16 03:51:48;;;;;;;;;;;;;;;10.23;96.16;100461.50;5095910;28;20252;-78
2024/02/16 03:54:13;;;;;;;;;;;;;;;10.27;96.24;100462.75;5097419;28;19927;-78
2024/02/16 03:56:38;;;;;;;;;;;;;;;10.29;96.28;100465.22;5096583;28;20022;-78
2024/02/16 03:59:05;;;;;;;;;;;;;;;10.29;96.51;100470.59;5096730;28;19968;-78
2024/02/16 04:01:30;;;;;;;;;;;;;;;10.29;96.19;100463.38;5096428;28;19920;-78
2024/02/16 04:03:55;;;;;;;;;;;;;;;10.35;95.44;100477.00;5097767;28;19916;-78
2024/02/16 04:06:21;;;;;;;;;;;;;;;10.33;96.14;100466.47;5093444;28;19944;-78
2024/02/16 04:08:46;;;;;;;;;;;;;;;10.37;95.70;100475.78;5096057;28;19932;-78
2024/02/16 04:11:12;;;;;;;;;;;;;;;10.36;95.96;100470.59;5097042;28;19924;-78
2024/02/16 04:13:37;;;;;;;;;;;;;;;10.37;95.65;100467.72;5096775;28;19927;-78
2024/02/16 04:16:02;;;;;;;;;;;;;;;10.38;95.43;100468.53;5095071;28;19927;-78
2024/02/16 04:18:28;;;;;;;;;;;;;;;10.39;95.43;100464.84;5109328;27;19919;-78
2024/02/16 04:20:53;;;;;;;;;;;;;;;10.37;95.60;100459.66;5115513;27;20279;-78
2024/02/16 04:23:18;;;;;;;;;;;;;;;10.35;95.72;100456.34;5116389;28;20337;-78
2024/02/16 04:25:43;;;;;;;;;;;;;;;10.38;95.88;100458.66;5107729;27;19920;-78
2024/02/16 04:28:09;;;;;;;;;;;;;;;10.32;96.10;100464.81;5102930;28;19920;-78
2024/02/16 04:30:34;;;;;;;;;;;;;;;10.30;96.60;100458.81;5102906;27;20010;-78
2024/02/16 04:33:00;;;;;;;;;;;;;;;10.32;96.76;100460.25;5117557;27;19951;-78
2024/02/16 04:35:25;;;;;;;;;;;;;;;10.37;96.27;100454.28;5103287;27;20344;-78
2024/02/16 04:37:50;;;;;;;;;;;;;;;10.40;96.37;100466.50;5106999;27;20015;-78
2024/02/16 04:40:15;;;;;;;;;;;;;;;10.37;96.14;100470.41;5111903;27;19927;-78
2024/02/16 04:42:44;;;;;;;;;;;;;;;10.35;95.95;100480.56;5112983;28;20369;-79
2024/02/16 04:45:12;;;;;;;;;;;;;;;10.39;95.98;100481.00;5091491;27;19927;-79
2024/02/16 04:47:38;;;;;;;;;;;;;;;10.36;96.01;100473.28;5104522;27;19924;-78
2024/02/16 04:50:04;;;;;;;;;;;;;;;10.29;96.49;100470.59;5104000;28;19926;-78
2024/02/16 04:52:29;;;;;;;;;;;;;;;10.26;96.87;100473.69;5103312;28;19972;-79
2024/02/16 04:54:54;;;;;;;;;;;;;;;10.16;97.23;100458.78;5111197;28;19976;-78
2024/02/16 04:57:20;;;;;;;;;;;;;;;10.15;97.30;100465.19;5101590;28;20339;-79
2024/02/16 04:59:45;;;;;;;;;;;;;;;10.18;97.64;100468.50;5095918;28;19943;-78
2024/02/16 05:02:11;;;;;;;;;;;;;;;10.10;97.98;100473.03;5099239;28;20324;-79
2024/02/16 05:04:36;;;;;;;;;;;;;;;10.10;97.77;100473.03;5099143;28;20387;-79
2024/02/16 05:07:01;;;;;;;;;;;;;;;10.13;97.83;100477.22;5104446;28;20470;-78
2024/02/16 05:09:26;;;;;;;;;;;;;;;10.16;97.53;100482.16;5097717;28;20442;-79
2024/02/16 05:11:51;;;;;;;;;;;;;;;10.18;97.80;100468.50;5100502;28;20439;-78
2024/02/16 05:14:17;;;;;;;;;;;;;;;10.25;96.71;100469.34;5101351;28;20450;-79
2024/02/16 05:16:45;;;;;;;;;;;;;;;10.27;96.43;100472.66;5108249;28;19943;-78
2024/02/16 05:19:11;;;;;;;;;;;;;;;10.23;97.12;100468.75;5099692;28;19924;-78
2024/02/16 05:21:36;;;;;;;;;;;;;;;10.26;96.77;100468.31;5112102;28;19920;-78
2024/02/16 05:24:01;;;;;;;;;;;;;;;10.22;96.79;100465.22;5104563;28;19947;-78
2024/02/16 05:26:27;;;;;;;;;;;;;;;10.18;97.66;100461.25;5116056;27;20689;-78
2024/02/16 05:28:52;;;;;;;;;;;;;;;10.19;97.65;100459.41;5105098;27;19970;-78
2024/02/16 05:31:18;;;;;;;;;;;;;;;10.20;97.85;100467.28;5101567;27;19963;-78
2024/02/16 05:33:43;;;;;;;;;;;;;;;10.20;97.79;100464.59;5109309;28;20034;-78
2024/02/16 05:36:08;;;;;;;;;;;;;;;10.18;97.67;100469.34;5111278;27;20041;-78
2024/02/16 05:38:40;;;;;;;;;;;;;;;10.18;98.29;100457.75;5116264;27;20371;-78
2024/02/16 05:41:05;;;;;;;;;;;;;;;10.15;98.51;100457.13;5124876;27;19984;-78
2024/02/16 05:43:30;;;;;;;;;;;;;;;10.16;98.05;100456.09;5114364;27;20031;-78
2024/02/16 05:45:56;;;;;;;;;;;;;;;10.22;98.02;100467.91;5103495;27;19974;-78
2024/02/16 05:48:21;;;;;;;;;;;;;;;10.30;97.54;100464.19;5095151;28;19916;-78
2024/02/16 05:50:47;;;;;;;;;;;;;;;10.31;97.56;100463.16;5103358;28;19954;-78
2024/02/16 05:53:12;;;;;;;;;;;;;;;10.28;97.59;100450.94;5096470;28;19974;-78
2024/02/16 05:55:37;;;;;;;;;;;;;;;10.30;97.54;100464.19;5097937;28;19916;-78
2024/02/16 05:58:04;;;;;;;;;;;;;;;10.28;98.04;100461.72;5106254;28;19927;-78
2024/02/16 06:00:30;;;;;;;;;;;;;;;10.33;97.65;100455.72;5100904;28;19924;-79
2024/02/16 06:02:55;;;;;;;;;;;;;;;10.37;97.47;100459.66;5107289;28;19919;-78
2024/02/16 06:05:21;;;;;;;;;;;;;;;10.36;97.49;100462.53;5103065;28;19990;-78
2024/02/16 06:07:46;;;;;;;;;;;;;;;10.38;97.11;100473.91;5098976;28;19928;-78
2024/02/16 06:10:12;;;;;;;;;;;;;;;10.42;97.28;100461.75;5115496;27;20014;-78
2024/02/16 06:12:38;;;;;;;;;;;;;;;10.42;97.10;100462.56;5103070;27;19932;-78
2024/02/16 06:15:03;;;;;;;;;;;;;;;10.44;97.25;100473.13;5100876;27;19938;-76
2024/02/16 06:17:28;;;;;;;;;;;;;;;10.42;97.46;100454.50;5103685;28;19927;-79
2024/02/16 06:19:53;;;;;;;;;;;;;;;10.40;97.92;100478.13;5093753;28;20570;-78
2024/02/16 06:22:19;;;;;;;;;;;;;;;10.46;97.49;100477.28;5090987;28;20399;-78
2024/02/16 06:24:44;;;;;;;;;;;;;;;10.54;96.83;100470.84;5100389;28;19961;-78
2024/02/16 06:27:09;;;;;;;;;;;;;;;10.47;97.90;100472.75;5092495;28;20397;-78
2024/02/16 06:29:35;;;;;;;;;;;;;;;10.49;97.59;100478.75;5090174;28;19923;-78
2024/02/16 06:32:02;;;;;;;;;;;;;;;10.52;97.16;100482.88;5092328;28;19916;-78
2024/02/16 06:34:27;;;;;;;;;;;;;;;10.54;97.42;100488.88;5095358;28;20308;-78
2024/02/16 06:36:52;;;;;;;;;;;;;;;10.53;96.95;100481.84;5087225;28;20869;-78
2024/02/16 06:39:18;;;;;;;;;;;;;;;10.53;97.63;100487.22;5091833;28;19922;-78
2024/02/16 06:41:46;;;;;;;;;;;;;;;10.58;97.46;100482.88;5091586;28;19924;-77
2024/02/16 06:44:11;;;;;;;;;;;;;;;10.57;97.64;100492.00;5088995;28;20011;-77
2024/02/16 06:46:37;;;;;;;;;;;;;;;10.59;97.72;100497.19;5090697;28;20440;-78
2024/02/16 06:49:02;;;;;;;;;;;;;;;10.59;97.54;100507.94;5091504;28;19955;-78
2024/02/16 06:51:28;;;;;;;;;;;;;;;10.64;97.60;100500.06;5089564;28;20292;-78
2024/02/16 06:53:53;;;;;;;;;;;;;;;10.69;97.58;100504.81;5091779;28;20387;-78
2024/02/16 06:56:18;;;;;;;;;;;;;;;10.67;97.25;100515.00;5091138;28;19966;-78
2024/02/16 06:58:46;;;;;;;;;;;;;;;10.72;97.53;100507.09;5092129;28;19920;-78
2024/02/16 07:01:14;;;;;;;;;;;;;;;10.74;97.73;100500.50;5091098;28;19920;-78
2024/02/16 07:03:40;;;;;;;;;;;;;;;10.76;97.81;100519.13;5090999;28;19924;-78
2024/02/16 07:06:09;;;;;;;;;;;;;;;10.80;97.50;100511.47;5089084;28;20003;-78
2024/02/16 07:08:34;;;;;;;;;;;;;;;10.80;97.78;100515.00;5088388;28;19927;-79
2024/02/16 07:11:00;;;;;;;;;;;;;;;10.86;97.55;100524.09;5092069;28;19920;-79
2024/02/16 07:13:25;;;;;;;;;;;;;;;10.88;97.37;100525.53;5087576;28;19924;-78
2024/02/16 07:15:51;;;;;;;;;;;;;;;10.91;97.44;100532.41;5089555;28;19924;-78
2024/02/16 07:18:16;;;;;;;;;;;;;;;10.97;96.64;100536.94;5098586;28;20418;-75
2024/02/16 07:20:41;;;;;;;;;;;;;;;11.00;96.86;100535.72;5101129;28;19920;-75
2024/02/16 07:23:06;;;;;;;;;;;;;;;11.05;96.89;100528.66;5099460;28;19919;-75
2024/02/16 07:25:31;;;;;;;;;;;;;;;11.05;96.74;100527.81;5103919;28;20208;-78
2024/02/16 07:27:57;;;;;;;;;;;;;;;11.11;96.46;100536.97;5108566;28;19970;-76
2024/02/16 07:30:22;;;;;;;;;;;;;;;11.15;96.56;100547.09;5108859;28;20366;-79
2024/02/16 07:32:52;;;;;;;;;;;;;;;11.21;96.25;100550.81;5102157;28;20701;-78
2024/02/16 07:35:17;;;;;;;;;;;;;;;11.23;96.67;100546.06;5094051;28;19943;-78
2024/02/16 07:37:43;;;;;;;;;;;;;;;11.26;96.08;100555.56;5103653;28;20500;-77
2024/02/16 07:40:09;;;;;;;;;;;;;;;11.29;96.46;100553.31;5101282;28;19920;-77
2024/02/16 07:42:37;;;;;;;;;;;;;;;11.35;96.09;100560.53;5104847;28;19931;-78
2024/02/16 07:45:04;;;;;;;;;;;;;;;11.44;95.65;100552.25;5102583;28;20378;-76
2024/02/16 07:47:29;;;;;;;;;;;;;;;11.52;95.32;100560.94;5116463;28;19914;-77
2024/02/16 07:49:55;;;;;;;;;;;;;;;11.61;94.72;100563.41;5109609;27;19924;-79
2024/02/16 07:52:20;;;;;;;;;;;;;;;11.79;93.74;100563.56;5098968;28;19946;-77
2024/02/16 07:54:45;;;;;;;;;;;;;;;11.92;93.23;100560.00;5106630;28;20390;-77
2024/02/16 07:57:10;;;;;;;;;;;;;;;11.96;92.90;100565.78;5109183;28;20375;-78
2024/02/16 07:59:36;;;;;;;;;;;;;;;11.96;92.88;100560.38;5098099;28;20339;-77
2024/02/16 08:02:02;;;;;;;;;;;;;;;11.94;93.27;100571.41;5092448;28;20210;-77
2024/02/16 08:04:28;;;;;;;;;;;;;;;11.93;93.32;100566.22;5103425;28;19923;-77
2024/02/16 08:06:53;;;;;;;;;;;;;;;11.88;93.41;100574.94;5095945;28;20278;-76
2024/02/16 08:09:19;;;;;;;;;;;;;;;11.83;93.11;100582.84;5100960;28;19923;-76
2024/02/16 08:11:44;;;;;;;;;;;;;;;11.86;93.25;100574.31;5098961;28;19935;-76
2024/02/16 08:14:09;;;;;;;;;;;;;;;11.87;93.40;100559.78;5099033;28;19924;-76
2024/02/16 08:16:34;;;;;;;;;;;;;;;11.85;94.04;100574.53;5101198;28;19920;-76
2024/02/16 08:18:59;;;;;;;;;;;;;;;11.88;93.85;100584.91;5107593;28;19924;-77
2024/02/16 08:21:25;;;;;;;;;;;;;;;11.85;94.11;100596.94;5104767;28;20035;-78
2024/02/16 08:23:50;;;;;;;;;;;;;;;11.88;94.28;100590.31;5095981;28;20000;-78
2024/02/16 08:26:17;;;;;;;;;;;;;;;11.90;94.11;100594.44;5112784;28;19916;-77
2024/02/16 08:28:45;;;;;;;;;;;;;;;11.92;93.82;100591.53;5112685;28;19923;-77
2024/02/16 08:31:14;;;;;;;;;;;;;;;11.93;93.83;100598.56;5077904;28;20351;-77
2024/02/16 08:33:39;;;;;;;;;;;;;;;11.94;94.20;100611.88;5101063;28;19920;-77
2024/02/16 08:36:06;;;;;;;;;;;;;;;11.97;93.76;100607.91;5098533;28;19931;-77
2024/02/16 08:38:32;;;;;;;;;;;;;;;11.95;94.40;100608.13;5105179;28;19926;-77
2024/02/16 08:40:57;;;;;;;;;;;;;;;11.95;94.32;100607.28;5112496;28;20006;-78
2024/02/16 08:43:22;;;;;;;;;;;;;;;11.96;94.89;100607.09;5097985;28;20012;-78
2024/02/16 08:45:49;;;;;;;;;;;;;;;11.96;95.12;100617.88;5099791;28;19928;-78
2024/02/16 08:48:15;;;;;;;;;;;;;;;11.94;95.24;100611.88;5105837;28;19920;-78
2024/02/16 08:50:40;;;;;;;;;;;;;;;11.94;95.89;100619.97;5098610;28;19920;-77
2024/02/16 08:53:05;;;;;;;;;;;;;;;11.94;96.30;100619.97;5097284;28;20356;-77
2024/02/16 08:55:31;;;;;;;;;;;;;;;11.96;96.69;100615.19;5104296;28;19924;-76
2024/02/16 08:57:57;;;;;;;;;;;;;;;11.95;96.58;100629.72;5098232;28;19935;-77
2024/02/16 09:00:23;;;;;;;;;;;;;;;11.99;96.38;100622.03;5107449;28;19932;-77
2024/02/16 09:02:48;;;;;;;;;;;;;;;11.97;97.38;100633.03;5103595;28;19920;-77
2024/02/16 09:05:14;;;;;;;;;;;;;;;12.02;97.13;100639.66;5104697;28;20102;-77
2024/02/16 09:07:39;;;;;;;;;;;;;;;12.04;96.74;100626.81;5107140;28;20369;-77
2024/02/16 09:10:04;;;;;;;;;;;;;;;12.03;96.50;100635.94;5106664;28;19923;-78
2024/02/16 09:12:30;;;;;;;;;;;;;;;12.08;96.54;100639.69;5108681;28;19931;-77
2024/02/16 09:14:55;;;;;;;;;;;;;;;12.10;96.28;100636.75;5107944;28;19920;-76
2024/02/16 09:17:20;;;;;;;;;;;;;;;12.09;96.31;100635.91;5093282;28;19920;-76
2024/02/16 09:19:46;;;;;;;;;;;;;;;12.14;96.93;100638.00;5089407;28;19920;-77
2024/02/16 09:22:14;;;;;;;;;;;;;;;12.16;96.89;100646.72;5085245;28;19927;-76
2024/02/16 09:24:40;;;;;;;;;;;;;;;12.17;97.23;100639.44;5092521;28;19927;-78
2024/02/16 09:27:05;;;;;;;;;;;;;;;12.09;99.95;100653.97;5089103;28;20341;-76
2024/02/16 09:29:31;;;;;;;;;;;;;;;12.02;100.00;100651.31;5089258;28;20415;-76
2024/02/16 09:31:56;;;;;;;;;;;;;;;12.01;100.00;100659.59;5091481;28;20174;-77
2024/02/16 09:34:21;;;;;;;;;;;;;;;12.03;100.00;100676.41;5086207;28;19920;-76
2024/02/16 09:36:46;;;;;;;;;;;;;;;11.97;100.00;100683.44;5083413;28;19938;-76
2024/02/16 09:39:12;;;;;;;;;;;;;;;11.94;100.00;100684.69;5071494;28;19920;-76
2024/02/16 09:41:37;;;;;;;;;;;;;;;11.95;100.00;100686.38;5090375;28;19943;-76
2024/02/16 09:44:02;;;;;;;;;;;;;;;12.06;100.00;100692.19;5071817;28;19923;-76
2024/02/16 09:46:28;;;;;;;;;;;;;;;12.05;100.00;100693.22;5090883;28;19920;-76
2024/02/16 09:48:53;;;;;;;;;;;;;;;12.03;100.00;100700.69;5071081;28;20090;-76
2024/02/16 09:51:18;;;;;;;;;;;;;;;12.07;100.00;100701.94;5071508;28;19920;-77
2024/02/16 09:53:44;;;;;;;;;;;;;;;12.11;100.00;100701.28;5088488;28;19934;-75
2024/02/16 09:56:10;;;;;;;;;;;;;;;12.13;100.00;100701.09;5071296;28;20276;-75
2024/02/16 09:58:35;;;;;;;;;;;;;;;12.17;99.70;100707.75;5089742;28;20394;-75
2024/02/16 10:01:00;;;;;;;;;;;;;;;12.19;99.94;100704.81;5089472;28;19920;-76
2024/02/16 10:03:26;;;;;;;;;;;;;;;12.24;99.92;100713.94;5089017;28;19931;-75
2024/02/16 10:05:52;;;;;;;;;;;;;;;12.27;99.53;100712.66;5089428;28;19942;-75
2024/02/16 10:08:18;;;;;;;;;;;;;;;12.35;99.33;100725.13;5085809;28;20427;-75
2024/02/16 10:10:43;;;;;;;;;;;;;;;12.42;98.98;100726.78;5089608;28;19954;-75
2024/02/16 10:13:11;;;;;;;;;;;;;;;12.48;97.27;100719.69;5093261;28;19950;-77
2024/02/16 10:15:36;;;;;;;;;;;;;;;12.52;98.04;100723.63;5094870;28;19931;-78
2024/02/16 10:18:02;;;;;;;;;;;;;;;12.56;98.17;100735.63;5098614;27;19923;-77
2024/02/16 10:20:27;;;;;;;;;;;;;;;12.64;97.65;100739.97;5100285;28;19939;-79
2024/02/16 10:23:06;;;;;;;;;;;;;;;12.57;98.42;100745.41;5105758;27;19942;-77
2024/02/16 10:25:31;;;;;;;;;;;;;;;12.62;98.46;100749.34;5099934;28;20436;-78
2024/02/16 10:27:58;;;;;;;;;;;;;;;12.57;98.95;100758.91;5100490;28;19982;-78
2024/02/16 10:30:24;;;;;;;;;;;;;;;12.59;98.53;100764.09;5095465;28;19920;-78
2024/02/16 10:32:49;;;;;;;;;;;;;;;12.55;98.85;100755.56;5094098;27;19920;-78
2024/02/16 10:35:19;;;;;;;;;;;;;;;12.76;97.83;100767.16;5112175;27;21458;-80
2024/02/16 10:37:45;;;;;;;;;;;;;;;12.79;97.46;100774.00;5097928;28;20279;-80
2024/02/16 10:40:13;;;;;;;;;;;;;;;12.74;97.90;100769.22;5099456;28;19920;-79
2024/02/16 10:42:38;;;;;;;;;;;;;;;12.76;98.39;100779.84;5098083;27;20112;-79
2024/02/16 10:45:04;;;;;;;;;;;;;;;12.79;98.04;100780.22;5101544;28;20452;-79
2024/02/16 10:47:29;;;;;;;;;;;;;;;12.89;98.02;100779.78;5092451;28;19967;-78
2024/02/16 10:49:54;;;;;;;;;;;;;;;12.85;98.95;100790.19;5084062;28;19924;-78
2024/02/16 10:52:19;;;;;;;;;;;;;;;13.01;97.94;100786.16;5108186;27;19920;-78
2024/02/16 10:54:45;;;;;;;;;;;;;;;12.94;98.50;100793.47;5102547;28;19933;-78
2024/02/16 10:57:10;;;;;;;;;;;;;;;12.95;99.08;100797.00;5078008;28;19964;-77
2024/02/16 10:59:43;;;;;;;;;;;;;;;12.71;100.00;100788.56;5106826;27;19955;-77
2024/02/16 11:02:08;;;;;;;;;;;;;;;12.76;100.00;100791.47;5098210;28;19959;-77
2024/02/16 11:04:37;;;;;;;;;;;;;;;12.72;100.00;100793.75;5102993;28;19974;-77
2024/02/16 11:07:09;;;;;;;;;;;;;;;12.48;100.00;100795.28;5097399;28;19985;-77
2024/02/16 11:09:35;;;;;;;;;;;;;;;12.41;100.00;100799.84;5104696;28;19920;-77
2024/02/16 11:12:03;;;;;;;;;;;;;;;12.27;100.00;100799.88;5110284;27;20022;-78
2024/02/16 11:14:35;;;;;;;;;;;;;;;12.25;100.00;100804.66;5099221;28;19966;-78
2024/02/16 11:17:01;;;;;;;;;;;;;;;12.22;100.00;100805.06;5101581;28;19920;-78
2024/02/16 11:19:26;;;;;;;;;;;;;;;12.15;100.00;100806.97;5089246;28;19978;-78
2024/02/16 11:21:58;;;;;;;;;;;;;;;12.04;100.00;100810.25;5088194;28;19965;-78
2024/02/16 11:24:31;;;;;;;;;;;;;;;12.02;100.00;100818.59;5092243;28;19977;-77
2024/02/16 11:26:56;;;;;;;;;;;;;;;12.01;100.00;100824.16;5087741;28;19920;-77
2024/02/16 11:29:21;;;;;;;;;;;;;;;11.89;100.00;100821.25;5088187;28;20026;-77
2024/02/16 11:31:47;;;;;;;;;;;;;;;11.73;100.00;100817.91;5074374;28;19920;-79
2024/02/16 11:34:21;;;;;;;;;;;;;;;11.62;100.00;100829.28;5088060;28;19929;-78
2024/02/16 11:36:46;;;;;;;;;;;;;;;11.49;100.00;100825.53;5088942;28;20321;-79
2024/02/16 11:39:17;;;;;;;;;;;;;;;11.50;100.00;100821.81;5091295;28;20006;-79
2024/02/16 11:41:42;;;;;;;;;;;;;;;11.46;100.00;100817.84;5087551;28;19974;-78
2024/02/16 11:44:08;;;;;;;;;;;;;;;11.44;100.00;100828.00;5083722;28;19928;-79
2024/02/16 11:46:35;;;;;;;;;;;;;;;11.33;100.00;100834.81;5081867;28;19924;-79
2024/02/16 11:49:07;;;;;;;;;;;;;;;11.31;100.00;100838.75;5085458;28;19935;-80
2024/02/16 11:51:32;;;;;;;;;;;;;;;11.24;100.00;100833.34;5090815;28;20372;-79
2024/02/16 11:53:57;;;;;;;;;;;;;;;11.25;100.00;100847.63;5084935;28;19920;-79
2024/02/16 11:56:24;;;;;;;;;;;;;;;11.22;100.00;100838.91;5068489;28;19931;-79
2024/02/16 11:58:52;;;;;;;;;;;;;;;11.12;100.00;100843.03;5068257;28;19920;-79
2024/02/16 12:01:21;;;;;;;;;;;;;;;11.18;100.00;100844.91;5091886;28;20166;-80
2024/02/16 12:03:46;;;;;;;;;;;;;;;11.16;100.00;100842.44;5110216;28;19919;-80
2024/02/16 12:06:19;;;;;;;;;;;;;;;11.14;100.00;100843.66;5102043;28;19954;-80
2024/02/16 12:08:44;;;;;;;;;;;;;;;11.09;100.00;100846.13;5076652;28;19920;-79
2024/02/16 12:11:09;;;;;;;;;;;;;;;11.01;100.00;100856.03;5153182;22;19950;-79
2024/02/16 12:13:35;;;;;;;;;;;;;;;11.00;100.00;100846.28;5081087;28;20359;-79
2024/02/16 12:16:01;;;;;;;;;;;;;;;10.91;100.00;100856.41;5095608;28;20608;-79
2024/02/16 12:18:27;;;;;;;;;;;;;;;10.93;100.00;100858.91;5098227;28;20050;-78
2024/02/16 12:20:58;;;;;;;;;;;;;;;10.81;100.00;100869.41;5097922;28;19923;-79
2024/02/16 12:23:23;;;;;;;;;;;;;;;10.79;100.00;100863.38;5094468;28;20077;-78
2024/02/16 12:25:48;;;;;;;;;;;;;;;10.69;100.00;100857.50;5098242;28;19920;-78
2024/02/16 12:28:13;;;;;;;;;;;;;;;10.80;100.00;100858.81;5091559;28;19920;-78